Time,TemperatureF,DewpointF,PressureIn,WindDirection,WindDirectionDegrees,WindSpeedMPH,WindSpeedGustMPH,Humidity,HourlyPrecipIn,Conditions,Clouds,dailyrainin,SoftwareType,DateUTC
2013-01-29 00:03:00,50.9,47.8,30.21,South,171,1.0,23.0,89,0.00,,,0.00,Wunderground v.1.15,2013-01-29 06:03:00,
2013-01-29 00:08:00,50.7,47.6,30.21,SSE,167,2.0,23.0,89,0.00,,,0.00,Wunderground v.1.15,2013-01-29 06:08:00,
2013-01-29 00:13:00,50.8,48.0,30.21,SSE,167,1.0,23.0,90,0.00,,,0.00,Wunderground v.1.15,2013-01-29 06:13:00,
2013-01-29 00:19:00,51.0,48.2,30.20,SSE,167,1.0,23.0,90,0.00,,,0.00,Wunderground v.1.15,2013-01-29 06:19:00,
2013-01-29 00:24:00,51.2,48.4,30.21,SSE,162,1.0,23.0,90,0.00,,,0.00,Wunderground v.1.15,2013-01-29 06:24:00,
2013-01-29 00:29:00,51.3,48.2,30.21,SSE,163,1.0,23.0,89,0.00,,,0.00,Wunderground v.1.15,2013-01-29 06:29:00,
2013-01-29 00:35:00,51.4,48.3,30.21,SSE,159,1.0,23.0,89,0.00,,,0.00,Wunderground v.1.15,2013-01-29 06:35:00,
2013-01-29 00:40:00,51.2,48.1,30.21,SSE,159,0.0,23.0,89,0.00,,,0.00,Wunderground v.1.15,2013-01-29 06:40:00,
2013-01-29 00:45:00,50.9,47.8,30.21,SSE,159,0.0,23.0,89,0.00,,,0.00,Wunderground v.1.15,2013-01-29 06:45:00,
2013-01-29 00:51:00,50.6,47.8,30.21,SSE,159,0.0,23.0,90,0.00,,,0.00,Wunderground v.1.15,2013-01-29 06:51:00,
2013-01-29 00:56:00,50.7,47.9,30.21,SSE,158,0.0,23.0,90,0.00,,,0.00,Wunderground v.1.15,2013-01-29 06:56:00,
2013-01-29 01:01:00,50.8,48.0,30.21,SSE,158,0.0,23.0,90,0.00,,,0.00,Wunderground v.1.15,2013-01-29 07:01:00,
2013-01-29 01:07:00,50.8,48.0,30.21,SSE,159,0.0,23.0,90,0.00,,,0.00,Wunderground v.1.15,2013-01-29 07:07:00,
2013-01-29 01:12:00,50.8,48.0,30.21,SSE,159,0.0,23.0,90,0.00,,,0.00,Wunderground v.1.15,2013-01-29 07:12:00,
2013-01-29 01:17:00,51.2,48.4,30.21,SSE,159,0.0,23.0,90,0.00,,,0.00,Wunderground v.1.15,2013-01-29 07:17:00,
2013-01-29 01:23:00,51.4,48.3,30.21,SSE,166,1.0,23.0,89,0.00,,,0.00,Wunderground v.1.15,2013-01-29 07:23:00,
2013-01-29 01:28:00,51.2,48.1,30.21,SSE,166,1.0,23.0,89,0.00,,,0.00,Wunderground v.1.15,2013-01-29 07:28:00,
2013-01-29 01:33:00,51.1,48.0,30.21,SSE,162,0.0,23.0,89,0.00,,,0.00,Wunderground v.1.15,2013-01-29 07:33:00,
2013-01-29 01:39:00,50.9,48.1,30.21,SSE,162,1.0,23.0,90,0.00,,,0.00,Wunderground v.1.15,2013-01-29 07:39:00,
2013-01-29 01:45:00,51.3,48.5,30.21,SSE,162,1.0,23.0,90,0.00,,,0.00,Wunderground v.1.15,2013-01-29 07:45:00,
2013-01-29 01:51:00,51.4,48.3,30.21,SSE,162,0.0,23.0,89,0.00,,,0.00,Wunderground v.1.15,2013-01-29 07:51:00,
2013-01-29 01:56:00,51.3,48.2,30.21,SSE,162,0.0,23.0,89,0.00,,,0.00,Wunderground v.1.15,2013-01-29 07:56:00,
2013-01-29 02:01:00,51.1,48.0,30.21,SSE,162,0.0,23.0,89,0.00,,,0.00,Wunderground v.1.15,2013-01-29 08:01:00,
2013-01-29 02:07:00,51.0,48.2,30.21,SSE,162,0.0,23.0,90,0.00,,,0.00,Wunderground v.1.15,2013-01-29 08:07:00,
2013-01-29 02:12:00,50.9,48.1,30.20,SSE,162,0.0,23.0,90,0.00,,,0.00,Wunderground v.1.15,2013-01-29 08:12:00,
2013-01-29 02:17:00,50.7,47.9,30.20,SSE,162,0.0,23.0,90,0.00,,,0.00,Wunderground v.1.15,2013-01-29 08:17:00,
2013-01-29 02:23:00,50.3,47.5,30.20,SSE,162,0.0,23.0,90,0.00,,,0.00,Wunderground v.1.15,2013-01-29 08:23:00,
2013-01-29 02:28:00,49.9,47.4,30.20,SSE,162,0.0,23.0,91,0.00,,,0.00,Wunderground v.1.15,2013-01-29 08:28:00,
2013-01-29 02:33:00,49.7,47.5,30.20,SSE,162,0.0,23.0,92,0.00,,,0.00,Wunderground v.1.15,2013-01-29 08:33:00,
2013-01-29 02:39:00,49.5,47.3,30.20,SSE,162,0.0,23.0,92,0.00,,,0.00,Wunderground v.1.15,2013-01-29 08:39:00,
2013-01-29 02:44:00,49.7,47.8,30.20,SSE,162,0.0,23.0,93,0.00,,,0.00,Wunderground v.1.15,2013-01-29 08:44:00,
2013-01-29 02:49:00,50.0,48.1,30.20,SSE,162,0.0,23.0,93,0.00,,,0.00,Wunderground v.1.15,2013-01-29 08:49:00,
2013-01-29 02:55:00,50.2,48.0,30.19,SSE,162,0.0,23.0,92,0.00,,,0.00,Wunderground v.1.15,2013-01-29 08:55:00,
2013-01-29 03:00:00,50.4,48.2,30.19,SSE,162,0.0,23.0,92,0.00,,,0.00,Wunderground v.1.15,2013-01-29 09:00:00,
2013-01-29 03:05:00,49.8,47.0,30.19,SSE,162,0.0,23.0,90,0.00,,,0.00,Wunderground v.1.15,2013-01-29 09:05:00,
2013-01-29 03:11:00,49.1,46.9,30.18,SSE,162,0.0,23.0,92,0.00,,,0.00,Wunderground v.1.15,2013-01-29 09:11:00,
2013-01-29 03:16:00,48.7,46.5,30.19,SSE,162,0.0,23.0,92,0.00,,,0.00,Wunderground v.1.15,2013-01-29 09:16:00,
2013-01-29 03:21:00,48.6,46.7,30.18,SSE,162,0.0,23.0,93,0.00,,,0.00,Wunderground v.1.15,2013-01-29 09:21:00,
2013-01-29 03:27:00,48.6,47.0,30.18,SSE,160,0.0,23.0,94,0.00,,,0.00,Wunderground v.1.15,2013-01-29 09:27:00,
2013-01-29 03:32:00,48.6,47.0,30.18,SSE,160,0.0,23.0,94,0.00,,,0.00,Wunderground v.1.15,2013-01-29 09:32:00,
2013-01-29 03:37:00,48.7,47.1,30.18,SSE,160,0.0,23.0,94,0.00,,,0.00,Wunderground v.1.15,2013-01-29 09:37:00,
2013-01-29 03:42:00,48.4,46.8,30.18,SSE,160,0.0,23.0,94,0.00,,,0.00,Wunderground v.1.15,2013-01-29 09:42:00,
2013-01-29 03:48:00,47.9,46.3,30.17,SSE,156,0.0,23.0,94,0.00,,,0.00,Wunderground v.1.15,2013-01-29 09:48:00,
2013-01-29 03:53:00,47.9,46.3,30.17,SSE,156,0.0,23.0,94,0.00,,,0.00,Wunderground v.1.15,2013-01-29 09:53:00,
2013-01-29 03:58:00,47.9,46.3,30.17,SSE,156,0.0,23.0,94,0.00,,,0.00,Wunderground v.1.15,2013-01-29 09:58:00,
2013-01-29 04:04:00,47.9,46.3,30.17,SSE,156,0.0,23.0,94,0.00,,,0.00,Wunderground v.1.15,2013-01-29 10:04:00,
2013-01-29 04:09:00,47.9,46.3,30.17,SSE,156,0.0,23.0,94,0.00,,,0.00,Wunderground v.1.15,2013-01-29 10:09:00,
2013-01-29 04:14:00,48.1,46.5,30.16,SSE,156,0.0,23.0,94,0.00,,,0.00,Wunderground v.1.15,2013-01-29 10:14:00,
2013-01-29 04:20:00,48.6,47.2,30.16,SSE,156,0.0,23.0,95,0.00,,,0.00,Wunderground v.1.15,2013-01-29 10:20:00,
2013-01-29 04:25:00,48.6,47.0,30.16,SSE,156,0.0,23.0,94,0.00,,,0.00,Wunderground v.1.15,2013-01-29 10:25:00,
2013-01-29 04:30:00,48.8,47.2,30.16,SSE,156,0.0,23.0,94,0.00,,,0.00,Wunderground v.1.15,2013-01-29 10:30:00,
2013-01-29 04:35:00,48.9,47.2,30.16,SSE,156,0.0,23.0,94,0.00,,,0.00,Wunderground v.1.15,2013-01-29 10:35:00,
2013-01-29 04:41:00,49.2,47.5,30.16,SSE,153,0.0,23.0,94,0.00,,,0.00,Wunderground v.1.15,2013-01-29 10:41:00,
2013-01-29 04:46:00,49.1,47.4,30.16,SSE,153,0.0,23.0,94,0.00,,,0.00,Wunderground v.1.15,2013-01-29 10:46:00,
2013-01-29 04:51:00,49.2,47.5,30.16,SSE,153,0.0,23.0,94,0.00,,,0.00,Wunderground v.1.15,2013-01-29 10:51:00,
2013-01-29 04:57:00,49.5,47.8,30.16,SSE,153,0.0,23.0,94,0.00,,,0.00,Wunderground v.1.15,2013-01-29 10:57:00,
2013-01-29 05:02:00,49.7,47.8,30.16,SSE,153,0.0,23.0,93,0.00,,,0.00,Wunderground v.1.15,2013-01-29 11:02:00,
2013-01-29 05:07:00,49.7,47.8,30.16,SSE,153,0.0,23.0,93,0.00,,,0.00,Wunderground v.1.15,2013-01-29 11:07:00,
2013-01-29 05:13:00,49.7,47.8,30.15,SSE,153,0.0,23.0,93,0.00,,,0.00,Wunderground v.1.15,2013-01-29 11:13:00,
2013-01-29 05:18:00,49.4,47.2,30.15,SE,143,0.0,23.0,92,0.00,,,0.00,Wunderground v.1.15,2013-01-29 11:18:00,
2013-01-29 05:24:00,49.6,47.7,30.15,SE,144,0.0,23.0,93,0.00,,,0.00,Wunderground v.1.15,2013-01-29 11:24:00,
2013-01-29 05:29:00,49.5,47.6,30.16,SE,144,0.0,23.0,93,0.00,,,0.00,Wunderground v.1.15,2013-01-29 11:29:00,
2013-01-29 05:35:00,49.6,47.7,30.15,SE,144,0.0,23.0,93,0.00,,,0.00,Wunderground v.1.15,2013-01-29 11:35:00,
2013-01-29 05:40:00,49.9,48.0,30.15,SE,144,1.0,1.0,93,0.00,,,0.00,Wunderground v.1.15,2013-01-29 11:40:00,
2013-01-29 05:45:00,50.4,48.5,30.15,SE,144,1.0,23.0,93,0.00,,,0.00,Wunderground v.1.15,2013-01-29 11:45:00,
2013-01-29 05:51:00,50.6,48.4,30.15,SE,144,0.0,23.0,92,0.00,,,0.00,Wunderground v.1.15,2013-01-29 11:51:00,
2013-01-29 05:56:00,50.6,48.4,30.15,SE,143,0.0,23.0,92,0.00,,,0.00,Wunderground v.1.15,2013-01-29 11:56:00,
2013-01-29 06:02:00,50.8,48.6,30.15,SE,144,0.0,23.0,92,0.00,,,0.00,Wunderground v.1.15,2013-01-29 12:02:00,
2013-01-29 06:07:00,50.8,48.6,30.15,SE,144,0.0,23.0,92,0.00,,,0.00,Wunderground v.1.15,2013-01-29 12:07:00,
2013-01-29 06:12:00,50.8,48.6,30.15,SE,143,0.0,23.0,92,0.00,,,0.00,Wunderground v.1.15,2013-01-29 12:12:00,
2013-01-29 06:18:00,50.9,48.7,30.15,SE,144,1.0,23.0,92,0.00,,,0.00,Wunderground v.1.15,2013-01-29 12:18:00,
2013-01-29 06:23:00,51.0,48.8,30.15,SE,144,1.0,23.0,92,0.00,,,0.00,Wunderground v.1.15,2013-01-29 12:23:00,
2013-01-29 06:29:00,51.4,48.9,30.15,SE,143,1.0,23.0,91,0.00,,,0.00,Wunderground v.1.15,2013-01-29 12:29:00,
2013-01-29 06:34:00,51.6,49.1,30.15,SE,143,0.0,23.0,91,0.00,,,0.00,Wunderground v.1.15,2013-01-29 12:34:00,
2013-01-29 06:40:00,51.6,48.8,30.15,SE,143,0.0,23.0,90,0.00,,,0.00,Wunderground v.1.15,2013-01-29 12:40:00,
2013-01-29 06:45:00,51.5,49.0,30.15,SE,144,0.0,23.0,91,0.00,,,0.00,Wunderground v.1.15,2013-01-29 12:45:00,
2013-01-29 06:51:00,51.5,49.0,30.15,SE,144,0.0,23.0,91,0.00,,,0.00,Wunderground v.1.15,2013-01-29 12:51:00,
2013-01-29 06:56:00,51.7,49.2,30.15,SE,143,0.0,23.0,91,0.00,,,0.00,Wunderground v.1.15,2013-01-29 12:56:00,
2013-01-29 07:01:00,51.8,49.3,30.15,SE,144,0.0,23.0,91,0.00,,,0.00,Wunderground v.1.15,2013-01-29 13:01:00,
2013-01-29 07:06:00,51.7,49.2,30.15,SE,144,0.0,23.0,91,0.00,,,0.00,Wunderground v.1.15,2013-01-29 13:06:00,
2013-01-29 07:12:00,52.0,49.5,30.15,SE,144,0.0,23.0,91,0.00,,,0.00,Wunderground v.1.15,2013-01-29 13:12:00,
2013-01-29 07:17:00,52.4,50.1,30.16,SE,144,0.0,23.0,92,0.00,,,0.00,Wunderground v.1.15,2013-01-29 13:17:00,
2013-01-29 07:22:00,52.7,50.1,30.15,SE,144,0.0,23.0,91,0.00,,,0.00,Wunderground v.1.15,2013-01-29 13:22:00,
2013-01-29 07:28:00,53.0,50.1,30.15,SE,143,0.0,23.0,90,0.00,,,0.00,Wunderground v.1.15,2013-01-29 13:28:00,
2013-01-29 07:33:00,53.0,50.1,30.15,SE,144,0.0,23.0,90,0.00,,,0.00,Wunderground v.1.15,2013-01-29 13:33:00,
2013-01-29 07:38:00,52.5,49.4,30.15,SE,144,1.0,23.0,89,0.00,,,0.00,Wunderground v.1.15,2013-01-29 13:38:00,
2013-01-29 07:44:00,52.4,49.6,30.16,SE,144,1.0,23.0,90,0.00,,,0.00,Wunderground v.1.15,2013-01-29 13:44:00,
2013-01-29 07:49:00,52.4,49.6,30.16,SE,131,1.0,23.0,90,0.00,,,0.00,Wunderground v.1.15,2013-01-29 13:49:00,
2013-01-29 07:54:00,52.3,49.5,30.16,SE,136,2.0,23.0,90,0.00,,,0.00,Wunderground v.1.15,2013-01-29 13:54:00,
2013-01-29 08:00:00,52.4,49.6,30.16,SE,135,2.0,2.0,90,0.00,,,0.00,Wunderground v.1.15,2013-01-29 14:00:00,
2013-01-29 08:05:00,52.6,50.0,30.16,SSE,149,1.0,23.0,91,0.00,,,0.00,Wunderground v.1.15,2013-01-29 14:05:00,
2013-01-29 08:11:00,53.1,50.5,30.15,SSE,149,1.0,23.0,91,0.00,,,0.00,Wunderground v.1.15,2013-01-29 14:11:00,
2013-01-29 08:16:00,53.5,50.6,30.15,SSE,149,0.0,23.0,90,0.00,,,0.00,Wunderground v.1.15,2013-01-29 14:16:00,
2013-01-29 08:21:00,53.8,50.9,30.15,SSE,149,0.0,23.0,90,0.00,,,0.00,Wunderground v.1.15,2013-01-29 14:21:00,
2013-01-29 08:27:00,54.2,51.3,30.14,SSE,149,1.0,23.0,90,0.00,,,0.00,Wunderground v.1.15,2013-01-29 14:27:00,
2013-01-29 08:32:00,54.5,51.3,30.15,SSE,149,1.0,23.0,89,0.00,,,0.00,Wunderground v.1.15,2013-01-29 14:32:00,
2013-01-29 08:37:00,54.8,51.6,30.14,SSE,149,0.0,23.0,89,0.00,,,0.00,Wunderground v.1.15,2013-01-29 14:37:00,
2013-01-29 08:43:00,55.0,51.5,30.14,SSE,149,0.0,23.0,88,0.00,,,0.00,Wunderground v.1.15,2013-01-29 14:43:00,
2013-01-29 08:48:00,55.2,51.7,30.14,SSE,149,0.0,23.0,88,0.00,,,0.00,Wunderground v.1.15,2013-01-29 14:48:00,
2013-01-29 08:53:00,55.1,51.0,30.14,SSE,149,0.0,23.0,86,0.00,,,0.00,Wunderground v.1.15,2013-01-29 14:53:00,
2013-01-29 08:59:00,54.1,50.0,30.14,SSE,149,0.0,23.0,86,0.00,,,0.00,Wunderground v.1.15,2013-01-29 14:59:00,
2013-01-29 09:04:00,53.2,49.1,30.14,SSE,149,0.0,23.0,86,0.00,,,0.00,Wunderground v.1.15,2013-01-29 15:04:00,
2013-01-29 09:09:00,52.5,48.7,30.15,SSE,149,0.0,23.0,87,0.00,,,0.00,Wunderground v.1.15,2013-01-29 15:09:00,
2013-01-29 09:15:00,52.4,49.3,30.15,SSE,149,0.0,23.0,89,0.00,,,0.00,Wunderground v.1.15,2013-01-29 15:15:00,
2013-01-29 09:20:00,52.7,49.8,30.14,SE,144,0.0,23.0,90,0.00,,,0.00,Wunderground v.1.15,2013-01-29 15:20:00,
2013-01-29 09:25:00,53.1,50.2,30.15,SE,144,0.0,23.0,90,0.00,,,0.00,Wunderground v.1.15,2013-01-29 15:25:00,
2013-01-29 09:31:00,53.4,50.5,30.14,SE,144,0.0,23.0,90,0.00,,,0.00,Wunderground v.1.15,2013-01-29 15:31:00,
2013-01-29 09:36:00,53.6,50.4,30.14,SE,144,0.0,23.0,89,0.00,,,0.00,Wunderground v.1.15,2013-01-29 15:36:00,
2013-01-29 09:42:00,53.9,50.7,30.14,SE,144,0.0,23.0,89,0.00,,,0.00,Wunderground v.1.15,2013-01-29 15:42:00,
2013-01-29 09:47:00,54.1,50.9,30.14,SE,144,0.0,23.0,89,0.00,,,0.00,Wunderground v.1.15,2013-01-29 15:47:00,
2013-01-29 09:53:00,54.2,51.0,30.14,SE,144,0.0,23.0,89,0.00,,,0.00,Wunderground v.1.15,2013-01-29 15:53:00,
2013-01-29 09:58:00,54.4,51.2,30.14,SE,143,0.0,23.0,89,0.00,,,0.00,Wunderground v.1.15,2013-01-29 15:58:00,
2013-01-29 10:03:00,54.7,51.5,30.13,SE,144,0.0,23.0,89,0.00,,,0.00,Wunderground v.1.15,2013-01-29 16:03:00,
2013-01-29 10:08:00,55.0,51.5,30.13,SE,143,0.0,23.0,88,0.00,,,0.00,Wunderground v.1.15,2013-01-29 16:08:00,
2013-01-29 10:14:00,55.2,51.7,30.13,SE,144,0.0,23.0,88,0.00,,,0.00,Wunderground v.1.15,2013-01-29 16:14:00,
2013-01-29 10:19:00,55.4,51.6,30.13,SE,144,0.0,23.0,87,0.00,,,0.00,Wunderground v.1.15,2013-01-29 16:19:00,
2013-01-29 10:25:00,55.2,51.7,30.13,SE,143,0.0,23.0,88,0.00,,,0.00,Wunderground v.1.15,2013-01-29 16:25:00,
2013-01-29 10:30:00,55.2,52.0,30.13,SE,144,0.0,23.0,89,0.00,,,0.00,Wunderground v.1.15,2013-01-29 16:30:00,
2013-01-29 10:36:00,55.1,52.2,30.12,SE,144,0.0,23.0,90,0.00,,,0.00,Wunderground v.1.15,2013-01-29 16:36:00,
2013-01-29 10:42:00,55.0,52.4,30.11,SE,144,0.0,23.0,91,0.00,,,0.00,Wunderground v.1.15,2013-01-29 16:42:00,
2013-01-29 10:47:00,54.8,52.2,30.11,SE,143,0.0,23.0,91,0.00,,,0.00,Wunderground v.1.15,2013-01-29 16:47:00,
2013-01-29 10:52:00,54.7,52.1,30.11,SE,144,0.0,23.0,91,0.00,,,0.00,Wunderground v.1.15,2013-01-29 16:52:00,
2013-01-29 10:58:00,54.7,52.1,30.10,SE,144,0.0,23.0,91,0.00,,,0.00,Wunderground v.1.15,2013-01-29 16:58:00,
2013-01-29 11:03:00,54.7,52.4,30.10,SE,144,0.0,23.0,92,0.00,,,0.00,Wunderground v.1.15,2013-01-29 17:03:00,
2013-01-29 11:09:00,54.9,52.9,30.10,SE,144,0.0,23.0,93,0.00,,,0.00,Wunderground v.1.15,2013-01-29 17:09:00,
2013-01-29 11:14:00,55.0,53.0,30.09,SE,144,0.0,23.0,93,0.00,,,0.00,Wunderground v.1.15,2013-01-29 17:14:00,
2013-01-29 11:20:00,55.1,53.1,30.09,SE,144,0.0,23.0,93,0.00,,,0.00,Wunderground v.1.15,2013-01-29 17:20:00,
2013-01-29 11:25:00,55.1,53.1,30.09,SE,144,0.0,23.0,93,0.00,,,0.00,Wunderground v.1.15,2013-01-29 17:25:00,
2013-01-29 11:31:00,55.2,53.2,30.09,SE,143,0.0,23.0,93,0.00,,,0.00,Wunderground v.1.15,2013-01-29 17:31:00,
2013-01-29 11:36:00,55.2,53.2,30.08,SE,144,0.0,23.0,93,0.00,,,0.00,Wunderground v.1.15,2013-01-29 17:36:00,
2013-01-29 11:41:00,55.4,53.4,30.08,SE,143,0.0,23.0,93,0.00,,,0.00,Wunderground v.1.15,2013-01-29 17:41:00,
2013-01-29 11:47:00,55.5,53.5,30.08,SE,144,0.0,23.0,93,0.00,,,0.00,Wunderground v.1.15,2013-01-29 17:47:00,
2013-01-29 11:53:00,55.5,53.2,30.07,SE,144,0.0,23.0,92,0.00,,,0.00,Wunderground v.1.15,2013-01-29 17:53:00,
2013-01-29 11:58:00,55.5,53.5,30.06,SE,143,0.0,23.0,93,0.00,,,0.00,Wunderground v.1.15,2013-01-29 17:58:00,
2013-01-29 12:04:00,55.7,53.7,30.06,SE,144,0.0,23.0,93,0.00,,,0.00,Wunderground v.1.15,2013-01-29 18:04:00,
2013-01-29 12:09:00,55.8,53.8,30.06,SE,143,1.0,23.0,93,0.00,,,0.00,Wunderground v.1.15,2013-01-29 18:09:00,
2013-01-29 12:14:00,55.8,53.8,30.05,SE,144,1.0,23.0,93,0.00,,,0.00,Wunderground v.1.15,2013-01-29 18:14:00,
2013-01-29 12:20:00,56.1,54.1,30.05,SE,144,1.0,1.0,93,0.00,,,0.00,Wunderground v.1.15,2013-01-29 18:20:00,
2013-01-29 12:25:00,56.3,54.3,30.04,SE,144,0.0,23.0,93,0.00,,,0.00,Wunderground v.1.15,2013-01-29 18:25:00,
2013-01-29 12:30:00,56.5,54.5,30.04,SE,144,0.0,23.0,93,0.00,,,0.00,Wunderground v.1.15,2013-01-29 18:30:00,
2013-01-29 12:36:00,56.7,54.4,30.04,SE,144,0.0,23.0,92,0.00,,,0.00,Wunderground v.1.15,2013-01-29 18:36:00,
2013-01-29 12:41:00,56.8,54.5,30.03,SE,131,1.0,23.0,92,0.00,,,0.00,Wunderground v.1.15,2013-01-29 18:41:00,
2013-01-29 12:46:00,56.8,54.5,30.03,SE,133,2.0,23.0,92,0.00,,,0.00,Wunderground v.1.15,2013-01-29 18:46:00,
2013-01-29 12:52:00,56.9,54.9,30.03,SE,140,1.0,23.0,93,0.00,,,0.00,Wunderground v.1.15,2013-01-29 18:52:00,
2013-01-29 12:57:00,57.0,55.0,30.03,SE,141,1.0,23.0,93,0.00,,,0.00,Wunderground v.1.15,2013-01-29 18:57:00,
2013-01-29 13:02:00,57.1,55.1,30.03,SE,140,0.0,23.0,93,0.00,,,0.00,Wunderground v.1.15,2013-01-29 19:02:00,
2013-01-29 13:07:00,57.3,55.3,30.02,SSE,149,0.0,23.0,93,0.00,,,0.00,Wunderground v.1.15,2013-01-29 19:07:00,
2013-01-29 13:13:00,57.5,55.2,30.02,SSE,149,1.0,23.0,92,0.00,,,0.00,Wunderground v.1.15,2013-01-29 19:13:00,
2013-01-29 13:18:00,57.5,55.2,30.02,SSE,149,1.0,23.0,92,0.00,,,0.00,Wunderground v.1.15,2013-01-29 19:18:00,
2013-01-29 13:23:00,57.6,55.3,30.01,SSE,149,0.0,23.0,92,0.00,,,0.00,Wunderground v.1.15,2013-01-29 19:23:00,
2013-01-29 13:29:00,57.7,55.4,30.01,SSE,149,0.0,23.0,92,0.00,,,0.00,Wunderground v.1.15,2013-01-29 19:29:00,
2013-01-29 13:34:00,57.8,55.5,30.01,SSE,153,0.0,23.0,92,0.00,,,0.00,Wunderground v.1.15,2013-01-29 19:34:00,
2013-01-29 13:39:00,57.9,55.6,30.01,SSE,162,1.0,23.0,92,0.00,,,0.00,Wunderground v.1.15,2013-01-29 19:39:00,
2013-01-29 13:45:00,58.0,55.7,30.01,SSE,160,1.0,23.0,92,0.00,,,0.00,Wunderground v.1.15,2013-01-29 19:45:00,
2013-01-29 13:50:00,58.1,55.8,30.00,SSE,160,1.0,23.0,92,0.00,,,0.00,Wunderground v.1.15,2013-01-29 19:50:00,
2013-01-29 13:55:00,58.2,55.6,30.00,SSE,166,1.0,23.0,91,0.00,,,0.00,Wunderground v.1.15,2013-01-29 19:55:00,
2013-01-29 14:01:00,58.4,55.8,30.00,SSE,164,1.0,23.0,91,0.00,,,0.00,Wunderground v.1.15,2013-01-29 20:01:00,
2013-01-29 14:02:00,58.4,55.8,30.00,SSE,164,1.0,23.0,91,0.00,,,0.00,Wunderground v.1.15,2013-01-29 20:02:00,
2013-01-29 14:07:00,58.6,56.0,30.00,SSE,164,0.0,23.0,91,0.00,,,0.00,Wunderground v.1.15,2013-01-29 20:07:00,
2013-01-29 14:12:00,58.7,56.1,30.00,SSE,164,0.0,23.0,91,0.00,,,0.00,Wunderground v.1.15,2013-01-29 20:12:00,
2013-01-29 14:18:00,58.7,56.1,30.00,SSE,162,1.0,23.0,91,0.00,,,0.00,Wunderground v.1.15,2013-01-29 20:18:00,
2013-01-29 14:24:00,58.6,56.0,29.99,South,174,1.0,23.0,91,0.00,,,0.00,Wunderground v.1.15,2013-01-29 20:24:00,
2013-01-29 14:29:00,58.7,56.1,29.99,SSE,160,2.0,23.0,91,0.00,,,0.00,Wunderground v.1.15,2013-01-29 20:29:00,
2013-01-29 14:35:00,58.8,56.2,29.99,South,171,2.0,23.0,91,0.00,,,0.00,Wunderground v.1.15,2013-01-29 20:35:00,
2013-01-29 14:40:00,59.0,56.4,29.99,South,169,3.0,3.0,91,0.00,,,0.00,Wunderground v.1.15,2013-01-29 20:40:00,
2013-01-29 14:46:00,59.0,56.4,29.98,SSE,157,2.0,23.0,91,0.00,,,0.00,Wunderground v.1.15,2013-01-29 20:46:00,
2013-01-29 14:52:00,59.0,56.4,29.98,SSE,162,1.0,23.0,91,0.00,,,0.00,Wunderground v.1.15,2013-01-29 20:52:00,
2013-01-29 14:57:00,59.1,56.5,29.98,South,175,1.0,23.0,91,0.00,,,0.00,Wunderground v.1.15,2013-01-29 20:57:00,
2013-01-29 15:02:00,59.2,56.6,29.98,SSE,152,3.0,23.0,91,0.00,,,0.00,Wunderground v.1.15,2013-01-29 21:02:00,
2013-01-29 15:08:00,59.3,56.4,29.97,SSE,166,3.0,23.0,90,0.00,,,0.00,Wunderground v.1.15,2013-01-29 21:08:00,
2013-01-29 15:13:00,59.5,56.9,29.97,SSE,164,2.0,23.0,91,0.00,,,0.00,Wunderground v.1.15,2013-01-29 21:13:00,
2013-01-29 15:18:00,59.7,56.8,29.97,SSE,150,1.0,23.0,90,0.00,,,0.00,Wunderground v.1.15,2013-01-29 21:18:00,
2013-01-29 15:24:00,59.9,57.0,29.96,SSE,148,1.0,23.0,90,0.00,,,0.00,Wunderground v.1.15,2013-01-29 21:24:00,
2013-01-29 15:29:00,60.1,57.2,29.96,SE,143,1.0,23.0,90,0.00,,,0.00,Wunderground v.1.15,2013-01-29 21:29:00,
2013-01-29 15:34:00,60.3,57.4,29.96,SSE,159,1.0,23.0,90,0.00,,,0.00,Wunderground v.1.15,2013-01-29 21:34:00,
2013-01-29 15:40:00,60.4,57.5,29.96,SSE,166,2.0,23.0,90,0.00,,,0.00,Wunderground v.1.15,2013-01-29 21:40:00,
2013-01-29 15:45:00,60.7,57.4,29.96,SSE,164,2.0,23.0,89,0.00,,,0.00,Wunderground v.1.15,2013-01-29 21:45:00,
2013-01-29 15:50:00,60.8,57.5,29.95,SSE,165,2.0,23.0,89,0.00,,,0.00,Wunderground v.1.15,2013-01-29 21:50:00,
2013-01-29 15:56:00,61.2,57.9,29.95,SSE,162,2.0,23.0,89,0.00,,,0.00,Wunderground v.1.15,2013-01-29 21:56:00,
2013-01-29 16:01:00,61.3,58.0,29.95,SSE,167,1.0,23.0,89,0.00,,,0.00,Wunderground v.1.15,2013-01-29 22:01:00,
2013-01-29 16:07:00,61.4,57.8,29.95,South,173,1.0,23.0,88,0.00,,,0.00,Wunderground v.1.15,2013-01-29 22:07:00,
2013-01-29 16:12:00,61.6,58.0,29.95,West,278,2.0,23.0,88,0.00,,,0.00,Wunderground v.1.15,2013-01-29 22:12:00,
2013-01-29 16:17:00,62.6,58.7,29.94,SE,140,5.0,23.0,87,0.00,,,0.00,Wunderground v.1.15,2013-01-29 22:17:00,
2013-01-29 16:22:00,62.9,58.6,29.94,SSE,166,5.0,23.0,86,0.00,,,0.00,Wunderground v.1.15,2013-01-29 22:22:00,
2013-01-29 16:28:00,63.2,58.6,29.94,SSE,162,4.0,23.0,85,0.00,,,0.00,Wunderground v.1.15,2013-01-29 22:28:00,
2013-01-29 16:33:00,63.4,58.8,29.93,South,170,4.0,23.0,85,0.00,,,0.00,Wunderground v.1.15,2013-01-29 22:33:00,
2013-01-29 16:39:00,63.5,58.9,29.93,SSE,157,4.0,23.0,85,0.00,,,0.00,Wunderground v.1.15,2013-01-29 22:39:00,
2013-01-29 16:44:00,63.2,58.6,29.93,South,173,3.0,23.0,85,0.00,,,0.00,Wunderground v.1.15,2013-01-29 22:44:00,
2013-01-29 16:49:00,63.4,58.8,29.93,SSE,162,3.0,23.0,85,0.00,,,0.00,Wunderground v.1.15,2013-01-29 22:49:00,
2013-01-29 16:55:00,63.6,58.7,29.93,SSE,166,3.0,23.0,84,0.00,,,0.00,Wunderground v.1.15,2013-01-29 22:55:00,
2013-01-29 17:00:00,63.6,59.0,29.93,SSE,167,2.0,2.0,85,0.00,,,0.00,Wunderground v.1.15,2013-01-29 23:00:00,
2013-01-29 17:05:00,63.5,58.9,29.93,SSE,150,1.0,23.0,85,0.00,,,0.00,Wunderground v.1.15,2013-01-29 23:05:00,
2013-01-29 17:11:00,63.5,58.9,29.93,South,176,0.0,23.0,85,0.00,,,0.00,Wunderground v.1.15,2013-01-29 23:11:00,
2013-01-29 17:16:00,63.6,59.0,29.93,SSE,164,1.0,23.0,85,0.00,,,0.00,Wunderground v.1.15,2013-01-29 23:16:00,
2013-01-29 17:22:00,63.9,59.0,29.92,SSE,166,1.0,23.0,84,0.00,,,0.00,Wunderground v.1.15,2013-01-29 23:22:00,
2013-01-29 17:27:00,64.0,59.1,29.92,SE,138,2.0,23.0,84,0.00,,,0.00,Wunderground v.1.15,2013-01-29 23:27:00,
2013-01-29 17:32:00,64.1,59.2,29.93,SSE,157,1.0,23.0,84,0.00,,,0.00,Wunderground v.1.15,2013-01-29 23:32:00,
2013-01-29 17:38:00,64.3,59.4,29.93,SSE,157,1.0,23.0,84,0.00,,,0.00,Wunderground v.1.15,2013-01-29 23:38:00,
2013-01-29 17:43:00,64.6,59.3,29.93,SSE,149,2.0,23.0,83,0.00,,,0.00,Wunderground v.1.15,2013-01-29 23:43:00,
2013-01-29 17:48:00,64.2,58.9,29.93,SSE,167,1.0,23.0,83,0.00,,,0.00,Wunderground v.1.15,2013-01-29 23:48:00,
2013-01-29 17:54:00,64.2,59.3,29.93,SSE,156,1.0,23.0,84,0.00,,,0.00,Wunderground v.1.15,2013-01-29 23:54:00,
2013-01-29 17:59:00,64.4,59.1,29.93,SSE,147,1.0,23.0,83,0.00,,,0.00,Wunderground v.1.15,2013-01-29 23:59:00,
2013-01-29 18:05:00,65.0,59.4,29.93,SW,216,2.0,23.0,82,0.00,,,0.00,Wunderground v.1.15,2013-01-30 00:05:00,
2013-01-29 18:10:00,65.6,59.6,29.93,SSW,206,3.0,23.0,81,0.00,,,0.00,Wunderground v.1.15,2013-01-30 00:10:00,
2013-01-29 18:16:00,65.9,59.9,29.93,SSE,162,3.0,23.0,81,0.00,,,0.00,Wunderground v.1.15,2013-01-30 00:16:00,
2013-01-29 18:21:00,66.0,59.7,29.93,South,178,3.0,23.0,80,0.00,,,0.00,Wunderground v.1.15,2013-01-30 00:21:00,
2013-01-29 18:26:00,66.1,59.7,29.93,SW,233,4.0,23.0,80,0.00,,,0.00,Wunderground v.1.15,2013-01-30 00:26:00,
2013-01-29 18:32:00,66.0,59.7,29.92,SSE,167,3.0,23.0,80,0.00,,,0.00,Wunderground v.1.15,2013-01-30 00:32:00,
2013-01-29 18:37:00,66.0,59.7,29.92,SE,135,3.0,23.0,80,0.00,,,0.00,Wunderground v.1.15,2013-01-30 00:37:00,
2013-01-29 18:42:00,66.1,59.7,29.92,South,185,4.0,23.0,80,0.00,,,0.00,Wunderground v.1.15,2013-01-30 00:42:00,
2013-01-29 18:48:00,66.1,59.7,29.92,SSE,166,3.0,23.0,80,0.00,,,0.00,Wunderground v.1.15,2013-01-30 00:48:00,
2013-01-29 18:53:00,66.1,59.7,29.92,SSE,151,2.0,23.0,80,0.00,,,0.00,Wunderground v.1.15,2013-01-30 00:53:00,
2013-01-29 18:58:00,66.0,59.7,29.92,SSE,157,2.0,23.0,80,0.00,,,0.00,Wunderground v.1.15,2013-01-30 00:58:00,
2013-01-29 19:04:00,65.9,59.9,29.92,SSE,166,3.0,23.0,81,0.00,,,0.00,Wunderground v.1.15,2013-01-30 01:04:00,
2013-01-29 19:09:00,66.2,59.8,29.92,SE,133,3.0,23.0,80,0.00,,,0.00,Wunderground v.1.15,2013-01-30 01:09:00,
2013-01-29 19:14:00,66.0,59.7,29.92,SSE,148,2.0,23.0,80,0.00,,,0.00,Wunderground v.1.15,2013-01-30 01:14:00,
2013-01-29 19:19:00,66.0,60.0,29.92,West,277,2.0,23.0,81,0.00,,,0.00,Wunderground v.1.15,2013-01-30 01:19:00,
2013-01-29 19:25:00,66.4,60.0,29.92,SSE,160,3.0,23.0,80,0.00,,,0.00,Wunderground v.1.15,2013-01-30 01:25:00,
2013-01-29 19:30:00,66.6,60.2,29.92,SW,216,4.0,4.0,80,0.00,,,0.00,Wunderground v.1.15,2013-01-30 01:30:00,
2013-01-29 19:36:00,66.7,60.3,29.92,SSE,164,4.0,23.0,80,0.00,,,0.00,Wunderground v.1.15,2013-01-30 01:36:00,
2013-01-29 19:43:00,66.7,60.3,29.92,SSW,207,3.0,23.0,80,0.00,,,0.00,Wunderground v.1.15,2013-01-30 01:43:00,
2013-01-29 19:48:00,66.7,60.3,29.92,SSE,151,3.0,23.0,80,0.00,,,0.00,Wunderground v.1.15,2013-01-30 01:48:00,
2013-01-29 19:54:00,66.6,60.2,29.92,South,169,3.0,23.0,80,0.00,,,0.00,Wunderground v.1.15,2013-01-30 01:54:00,
2013-01-29 19:59:00,66.7,60.3,29.92,SSW,202,3.0,23.0,80,0.00,,,0.00,Wunderground v.1.15,2013-01-30 01:59:00,
2013-01-29 20:04:00,66.8,60.4,29.91,SSW,197,4.0,23.0,80,0.00,,,0.00,Wunderground v.1.15,2013-01-30 02:04:00,
2013-01-29 20:10:00,66.8,60.4,29.91,SSE,158,4.0,4.0,80,0.00,,,0.00,Wunderground v.1.15,2013-01-30 02:10:00,
2013-01-29 20:15:00,66.6,60.2,29.90,SSW,207,3.0,23.0,80,0.00,,,0.00,Wunderground v.1.15,2013-01-30 02:15:00,
2013-01-29 20:20:00,66.8,60.4,29.91,SE,142,3.0,3.0,80,0.00,,,0.00,Wunderground v.1.15,2013-01-30 02:20:00,
2013-01-29 20:25:00,66.8,60.4,29.90,SSE,163,3.0,23.0,80,0.00,,,0.00,Wunderground v.1.15,2013-01-30 02:25:00,
2013-01-29 20:31:00,66.8,60.4,29.90,South,185,3.0,4.0,80,0.00,,,0.00,Wunderground v.1.15,2013-01-30 02:31:00,
2013-01-29 20:36:00,66.8,60.4,29.90,SSE,168,4.0,23.0,80,0.00,,,0.00,Wunderground v.1.15,2013-01-30 02:36:00,
2013-01-29 20:42:00,67.0,60.6,29.89,SSE,157,4.0,23.0,80,0.00,,,0.00,Wunderground v.1.15,2013-01-30 02:42:00,
2013-01-29 20:47:00,66.8,60.4,29.88,SSE,165,3.0,23.0,80,0.00,,,0.00,Wunderground v.1.15,2013-01-30 02:47:00,
2013-01-29 20:52:00,66.6,60.2,29.88,SSE,149,2.0,23.0,80,0.00,,,0.00,Wunderground v.1.15,2013-01-30 02:52:00,
2013-01-29 20:58:00,66.7,60.3,29.87,SE,132,3.0,23.0,80,0.00,,,0.00,Wunderground v.1.15,2013-01-30 02:58:00,
2013-01-29 21:03:00,66.6,60.2,29.87,SSE,158,3.0,23.0,80,0.00,,,0.00,Wunderground v.1.15,2013-01-30 03:03:00,
2013-01-29 21:08:00,66.6,60.2,29.87,South,178,3.0,23.0,80,0.00,,,0.00,Wunderground v.1.15,2013-01-30 03:08:00,
2013-01-29 21:14:00,66.5,60.5,29.86,South,171,3.0,23.0,81,0.00,,,0.00,Wunderground v.1.15,2013-01-30 03:14:00,
2013-01-29 21:19:00,66.6,60.6,29.86,WSW,247,4.0,23.0,81,0.00,,,0.00,Wunderground v.1.15,2013-01-30 03:19:00,
2013-01-29 21:24:00,66.7,60.7,29.87,SSE,167,4.0,23.0,81,0.00,,,0.00,Wunderground v.1.15,2013-01-30 03:24:00,
2013-01-29 21:30:00,66.7,60.7,29.87,SE,142,3.0,3.0,81,0.00,,,0.00,Wunderground v.1.15,2013-01-30 03:30:00,
2013-01-29 21:35:00,66.7,60.7,29.86,SW,231,3.0,23.0,81,0.00,,,0.00,Wunderground v.1.15,2013-01-30 03:35:00,
2013-01-29 21:40:00,66.8,60.8,29.86,SE,144,4.0,4.0,81,0.00,,,0.00,Wunderground v.1.15,2013-01-30 03:40:00,
2013-01-29 21:45:00,67.1,60.7,29.85,SE,138,5.0,23.0,80,0.00,,,0.00,Wunderground v.1.15,2013-01-30 03:45:00,
2013-01-29 21:51:00,67.3,60.9,29.84,South,179,7.0,7.0,80,0.00,,,0.00,Wunderground v.1.15,2013-01-30 03:51:00,
2013-01-29 21:56:00,67.4,61.0,29.84,SSE,162,7.0,23.0,80,0.00,,,0.00,Wunderground v.1.15,2013-01-30 03:56:00,
2013-01-29 22:01:00,67.4,61.0,29.84,SW,222,7.0,23.0,80,0.00,,,0.00,Wunderground v.1.15,2013-01-30 04:01:00,
2013-01-29 22:07:00,67.5,61.1,29.83,SSW,211,7.0,23.0,80,0.00,,,0.00,Wunderground v.1.15,2013-01-30 04:07:00,
2013-01-29 22:12:00,67.5,61.1,29.83,South,191,6.0,23.0,80,0.00,,,0.00,Wunderground v.1.15,2013-01-30 04:12:00,
2013-01-29 22:17:00,67.6,60.9,29.83,WSW,254,5.0,23.0,79,0.00,,,0.00,Wunderground v.1.15,2013-01-30 04:17:00,
2013-01-29 22:23:00,67.7,61.0,29.83,South,190,6.0,23.0,79,0.00,,,0.00,Wunderground v.1.15,2013-01-30 04:23:00,
2013-01-29 22:28:00,67.7,61.0,29.82,SW,215,6.0,23.0,79,0.00,,,0.00,Wunderground v.1.15,2013-01-30 04:28:00,
2013-01-29 22:33:00,68.0,60.9,29.82,SW,214,7.0,23.0,78,0.00,,,0.00,Wunderground v.1.15,2013-01-30 04:33:00,
2013-01-29 22:39:00,68.2,61.1,29.81,SSW,201,9.0,23.0,78,0.00,,,0.00,Wunderground v.1.15,2013-01-30 04:39:00,
2013-01-29 22:44:00,68.1,61.0,29.80,WSW,252,9.0,23.0,78,0.00,,,0.00,Wunderground v.1.15,2013-01-30 04:44:00,
2013-01-29 22:49:00,68.1,61.0,29.81,SE,145,9.0,23.0,78,0.00,,,0.00,Wunderground v.1.15,2013-01-30 04:49:00,
2013-01-29 22:55:00,68.1,61.0,29.81,SW,228,11.0,23.0,78,0.00,,,0.00,Wunderground v.1.15,2013-01-30 04:55:00,
2013-01-29 23:01:00,68.0,60.9,29.80,SSW,207,9.0,23.0,78,0.00,,,0.00,Wunderground v.1.15,2013-01-30 05:01:00,
2013-01-29 23:03:00,68.0,60.9,29.80,SW,219,9.0,23.0,78,0.00,,,0.00,Wunderground v.1.15,2013-01-30 05:03:00,
2013-01-29 23:04:00,68.0,60.9,29.80,SSW,201,9.0,23.0,78,0.00,,,0.00,Wunderground v.1.15,2013-01-30 05:04:00,
2013-01-29 23:09:00,67.9,60.8,29.80,West,263,8.0,23.0,78,0.00,,,0.00,Wunderground v.1.15,2013-01-30 05:09:00,
2013-01-29 23:12:00,68.0,60.9,29.80,SSW,208,8.0,20.0,78,0.00,,,0.00,Wunderground v.1.15,2013-01-30 05:12:00,
2013-01-29 23:18:00,68.0,60.9,29.80,WSW,252,9.0,23.0,78,0.00,,,0.00,Wunderground v.1.15,2013-01-30 05:18:00,
2013-01-29 23:23:00,68.1,61.0,29.79,South,191,10.0,23.0,78,0.00,,,0.00,Wunderground v.1.15,2013-01-30 05:23:00,
2013-01-29 23:28:00,68.1,61.0,29.79,WSW,258,10.0,23.0,78,0.00,,,0.00,Wunderground v.1.15,2013-01-30 05:28:00,
2013-01-29 23:34:00,68.1,61.0,29.79,SSW,202,10.0,23.0,78,0.00,,,0.00,Wunderground v.1.15,2013-01-30 05:34:00,
2013-01-29 23:39:00,68.1,61.0,29.78,SSW,208,10.0,23.0,78,0.00,,,0.00,Wunderground v.1.15,2013-01-30 05:39:00,
2013-01-29 23:45:00,68.0,60.9,29.78,SW,222,8.0,23.0,78,0.00,,,0.00,Wunderground v.1.15,2013-01-30 05:45:00,
2013-01-29 23:51:00,68.1,61.0,29.77,SW,216,9.0,23.0,78,0.00,,,0.00,Wunderground v.1.15,2013-01-30 05:51:00,
2013-01-29 23:57:00,68.1,61.0,29.76,SSW,194,9.0,23.0,78,0.00,,,0.00,Wunderground v.1.15,2013-01-30 05:57:00,